Walden, Minnesota
Current Conditions -  °F | °C
As of 12:14 PM on Sunday 25 Jan 2015 (Local Time) from KPWC Reporting Station
Broken Clouds Broken Clouds  
Wind Chill: 21°   Ceiling: 2200
Heat Index: 21°   Visibility: 10mi
Dew Point: 16°   Wind: 0mph
Humidity: 80%   Direction: NA
Pressure: 30.05"   Gusts: NA
Location:  46.6535°N, 94.5389°W
Report Text: KPWC 251814Z AUTO 00000KT 10SM BKN022 M06/M09 A3005 RMK AO2
Loading
Personal Weather Stations






























Interactive Weather Map New forecast layout! Learn more

10-Day Weather Forecast

Advertisements
Track Severe Weather on mobile